sensor_id;sensor_type;location;lat;lon;timestamp;P1;durP1;ratioP1;P2;durP2;ratioP2
71821;SDS011;64096;52.548;13.406;2023-05-19T06:05:42;7.35;;;2.22;;
71821;SDS011;64096;52.548;13.406;2023-05-19T06:08:08;3.85;;;1.90;;
71821;SDS011;64096;52.548;13.406;2023-05-19T06:10:34;5.50;;;1.95;;
71821;SDS011;64096;52.548;13.406;2023-05-19T06:13:02;4.35;;;2.28;;
71821;SDS011;64096;52.548;13.406;2023-05-19T06:15:28;4.50;;;2.03;;
71821;SDS011;64096;52.548;13.406;2023-05-19T06:17:54;4.93;;;2.15;;
71821;SDS011;64096;52.548;13.406;2023-05-19T06:20:20;3.67;;;1.92;;
71821;SDS011;64096;52.548;13.406;2023-05-19T06:22:46;4.75;;;2.05;;
71821;SDS011;64096;52.548;13.406;2023-05-19T06:25:13;4.63;;;1.90;;
71821;SDS011;64096;52.548;13.406;2023-05-19T06:27:40;3.72;;;2.00;;
71821;SDS011;64096;52.548;13.406;2023-05-19T06:30:06;3.58;;;1.80;;
71821;SDS011;64096;52.548;13.406;2023-05-19T06:32:32;4.35;;;1.88;;
71821;SDS011;64096;52.548;13.406;2023-05-19T06:34:58;4.18;;;1.65;;
71821;SDS011;64096;52.548;13.406;2023-05-19T06:37:24;5.57;;;1.92;;
71821;SDS011;64096;52.548;13.406;2023-05-19T06:39:51;3.90;;;2.10;;
71821;SDS011;64096;52.548;13.406;2023-05-19T06:42:17;3.75;;;1.92;;
71821;SDS011;64096;52.548;13.406;2023-05-19T06:44:48;5.35;;;2.38;;
71821;SDS011;64096;52.548;13.406;2023-05-19T06:47:15;4.13;;;2.38;;
71821;SDS011;64096;52.548;13.406;2023-05-19T06:49:41;4.05;;;2.03;;
71821;SDS011;64096;52.548;13.406;2023-05-19T06:52:07;4.63;;;2.10;;
71821;SDS011;64096;52.548;13.406;2023-05-19T06:54:33;5.07;;;2.22;;
71821;SDS011;64096;52.548;13.406;2023-05-19T06:56:59;5.68;;;2.40;;
71821;SDS011;64096;52.548;13.406;2023-05-19T06:59:25;3.63;;;1.73;;
71821;SDS011;64096;52.548;13.406;2023-05-19T07:01:51;4.43;;;1.98;;
71821;SDS011;64096;52.548;13.406;2023-05-19T07:04:17;5.22;;;2.40;;
71821;SDS011;64096;52.548;13.406;2023-05-19T07:06:43;5.25;;;2.65;;
71821;SDS011;64096;52.548;13.406;2023-05-19T07:09:09;3.75;;;1.90;;
71821;SDS011;64096;52.548;13.406;2023-05-19T07:11:35;4.75;;;2.05;;
71821;SDS011;64096;52.548;13.406;2023-05-19T07:14:01;4.78;;;1.92;;
71821;SDS011;64096;52.548;13.406;2023-05-19T07:16:28;5.57;;;1.95;;
71821;SDS011;64096;52.548;13.406;2023-05-19T07:18:54;3.78;;;1.80;;
71821;SDS011;64096;52.548;13.406;2023-05-19T07:21:20;4.07;;;1.85;;
71821;SDS011;64096;52.548;13.406;2023-05-19T07:23:46;6.78;;;2.03;;
71821;SDS011;64096;52.548;13.406;2023-05-19T07:26:12;3.65;;;1.73;;
71821;SDS011;64096;52.548;13.406;2023-05-19T07:28:38;4.50;;;2.15;;
71821;SDS011;64096;52.548;13.406;2023-05-19T07:31:04;4.65;;;1.90;;
71821;SDS011;64096;52.548;13.406;2023-05-19T07:33:30;4.00;;;1.98;;
71821;SDS011;64096;52.548;13.406;2023-05-19T07:35:56;3.67;;;1.77;;
71821;SDS011;64096;52.548;13.406;2023-05-19T07:38:22;4.13;;;1.90;;
71821;SDS011;64096;52.548;13.406;2023-05-19T07:40:48;4.80;;;2.13;;
71821;SDS011;64096;52.548;13.406;2023-05-19T07:43:14;4.38;;;1.92;;
71821;SDS011;64096;52.548;13.406;2023-05-19T07:45:40;4.45;;;1.75;;
71821;SDS011;64096;52.548;13.406;2023-05-19T07:48:07;4.97;;;2.53;;
71821;SDS011;64096;52.548;13.406;2023-05-19T07:50:38;3.75;;;1.73;;
71821;SDS011;64096;52.548;13.406;2023-05-19T07:53:04;3.88;;;1.90;;
71821;SDS011;64096;52.548;13.406;2023-05-19T07:55:30;4.30;;;2.00;;
71821;SDS011;64096;52.548;13.406;2023-05-19T07:57:56;4.18;;;1.92;;
71821;SDS011;64096;52.548;13.406;2023-05-19T08:00:22;5.47;;;2.08;;
71821;SDS011;64096;52.548;13.406;2023-05-19T08:02:48;3.75;;;1.85;;
71821;SDS011;64096;52.548;13.406;2023-05-19T08:05:14;4.47;;;1.90;;
71821;SDS011;64096;52.548;13.406;2023-05-19T08:07:40;4.25;;;2.30;;
71821;SDS011;64096;52.548;13.406;2023-05-19T08:10:06;3.83;;;1.98;;
71821;SDS011;64096;52.548;13.406;2023-05-19T08:12:32;4.25;;;2.60;;
71821;SDS011;64096;52.548;13.406;2023-05-19T08:14:58;6.78;;;2.60;;
71821;SDS011;64096;52.548;13.406;2023-05-19T08:17:24;5.22;;;2.20;;
71821;SDS011;64096;52.548;13.406;2023-05-19T08:19:50;3.15;;;1.80;;
71821;SDS011;64096;52.548;13.406;2023-05-19T08:22:17;3.50;;;1.92;;
71821;SDS011;64096;52.548;13.406;2023-05-19T08:24:43;3.78;;;1.95;;
71821;SDS011;64096;52.548;13.406;2023-05-19T08:27:09;3.95;;;2.10;;
71821;SDS011;64096;52.548;13.406;2023-05-19T08:29:35;3.95;;;2.13;;
71821;SDS011;64096;52.548;13.406;2023-05-19T08:32:03;5.55;;;2.03;;
71821;SDS011;64096;52.548;13.406;2023-05-19T08:34:29;4.25;;;2.25;;
71821;SDS011;64096;52.548;13.406;2023-05-19T08:36:56;4.07;;;1.63;;
71821;SDS011;64096;52.548;13.406;2023-05-19T08:39:23;3.95;;;2.05;;
71821;SDS011;64096;52.548;13.406;2023-05-19T08:41:53;4.35;;;1.90;;
71821;SDS011;64096;52.548;13.406;2023-05-19T08:44:20;3.33;;;1.67;;
71821;SDS011;64096;52.548;13.406;2023-05-19T08:46:46;3.10;;;1.52;;
71821;SDS011;64096;52.548;13.406;2023-05-19T08:49:12;3.03;;;1.77;;
71821;SDS011;64096;52.548;13.406;2023-05-19T08:52:01;3.53;;;1.85;;
71821;SDS011;64096;52.548;13.406;2023-05-19T08:54:32;3.47;;;1.83;;
71821;SDS011;64096;52.548;13.406;2023-05-19T08:57:04;3.63;;;1.60;;
71821;SDS011;64096;52.548;13.406;2023-05-19T08:59:30;3.35;;;1.52;;
71821;SDS011;64096;52.548;13.406;2023-05-19T09:01:57;2.67;;;1.30;;
71821;SDS011;64096;52.548;13.406;2023-05-19T09:04:23;2.47;;;1.42;;
71821;SDS011;64096;52.548;13.406;2023-05-19T09:06:52;2.75;;;1.60;;
71821;SDS011;64096;52.548;13.406;2023-05-19T09:09:18;3.67;;;1.45;;
71821;SDS011;64096;52.548;13.406;2023-05-19T09:11:45;2.58;;;1.20;;
71821;SDS011;64096;52.548;13.406;2023-05-19T09:14:11;3.00;;;1.50;;
71821;SDS011;64096;52.548;13.406;2023-05-19T09:16:37;3.60;;;1.48;;
71821;SDS011;64096;52.548;13.406;2023-05-19T09:19:03;3.15;;;1.60;;
71821;SDS011;64096;52.548;13.406;2023-05-19T09:21:32;2.45;;;1.50;;
71821;SDS011;64096;52.548;13.406;2023-05-19T09:24:05;2.92;;;1.50;;
71821;SDS011;64096;52.548;13.406;2023-05-19T09:26:38;3.00;;;1.48;;
71821;SDS011;64096;52.548;13.406;2023-05-19T09:29:14;3.65;;;1.38;;
71821;SDS011;64096;52.548;13.406;2023-05-19T09:31:47;3.15;;;1.42;;
71821;SDS011;64096;52.548;13.406;2023-05-19T09:34:16;3.38;;;1.05;;
71821;SDS011;64096;52.548;13.406;2023-05-19T09:36:42;3.22;;;1.30;;
71821;SDS011;64096;52.548;13.406;2023-05-19T09:39:12;3.05;;;1.23;;
71821;SDS011;64096;52.548;13.406;2023-05-19T09:41:38;4.07;;;1.48;;
71821;SDS011;64096;52.548;13.406;2023-05-19T09:44:05;2.47;;;1.20;;
71821;SDS011;64096;52.548;13.406;2023-05-19T09:46:31;1.73;;;0.90;;
71821;SDS011;64096;52.548;13.406;2023-05-19T09:48:59;2.17;;;1.08;;
71821;SDS011;64096;52.548;13.406;2023-05-19T09:51:25;2.58;;;1.27;;
71821;SDS011;64096;52.548;13.406;2023-05-19T09:53:52;2.30;;;1.20;;
71821;SDS011;64096;52.548;13.406;2023-05-19T09:56:18;1.83;;;1.00;;
71821;SDS011;64096;52.548;13.406;2023-05-19T09:58:47;2.85;;;1.10;;
71821;SDS011;64096;52.548;13.406;2023-05-19T10:01:13;3.78;;;1.30;;
71821;SDS011;64096;52.548;13.406;2023-05-19T10:03:39;3.92;;;1.70;;
71821;SDS011;64096;52.548;13.406;2023-05-19T10:06:06;2.20;;;1.15;;
71821;SDS011;64096;52.548;13.406;2023-05-19T10:08:33;3.08;;;1.00;;
71821;SDS011;64096;52.548;13.406;2023-05-19T10:10:59;2.50;;;1.17;;
71821;SDS011;64096;52.548;13.406;2023-05-19T10:13:26;2.53;;;1.10;;
71821;SDS011;64096;52.548;13.406;2023-05-19T10:15:53;2.90;;;0.95;;
71821;SDS011;64096;52.548;13.406;2023-05-19T10:18:20;3.10;;;1.10;;
71821;SDS011;64096;52.548;13.406;2023-05-19T10:20:47;2.13;;;1.05;;
71821;SDS011;64096;52.548;13.406;2023-05-19T10:23:15;1.98;;;1.02;;
71821;SDS011;64096;52.548;13.406;2023-05-19T10:25:41;2.17;;;1.00;;
71821;SDS011;64096;52.548;13.406;2023-05-19T10:28:11;2.78;;;1.40;;
71821;SDS011;64096;52.548;13.406;2023-05-19T10:30:39;4.28;;;1.58;;
71821;SDS011;64096;52.548;13.406;2023-05-19T10:33:06;4.72;;;1.50;;
71821;SDS011;64096;52.548;13.406;2023-05-19T10:46:11;2.72;;;1.10;;
71821;SDS011;64096;52.548;13.406;2023-05-19T10:48:37;2.88;;;1.00;;
71821;SDS011;64096;52.548;13.406;2023-05-19T10:51:03;2.35;;;1.00;;
71821;SDS011;64096;52.548;13.406;2023-05-19T10:53:32;1.92;;;0.80;;
71821;SDS011;64096;52.548;13.406;2023-05-19T10:56:00;1.90;;;1.02;;
71821;SDS011;64096;52.548;13.406;2023-05-19T11:01:06;1.45;;;0.98;;
71821;SDS011;64096;52.548;13.406;2023-05-19T11:03:46;2.92;;;0.98;;
71821;SDS011;64096;52.548;13.406;2023-05-19T11:06:26;3.10;;;1.27;;
71821;SDS011;64096;52.548;13.406;2023-05-19T11:08:52;2.58;;;1.25;;
71821;SDS011;64096;52.548;13.406;2023-05-19T11:11:19;5.10;;;1.02;;
71821;SDS011;64096;52.548;13.406;2023-05-19T11:13:45;1.55;;;0.85;;
71821;SDS011;64096;52.548;13.406;2023-05-19T11:16:12;3.03;;;1.02;;
71821;SDS011;64096;52.548;13.406;2023-05-19T11:18:39;3.03;;;1.13;;
71821;SDS011;64096;52.548;13.406;2023-05-19T11:21:05;2.45;;;1.08;;
71821;SDS011;64096;52.548;13.406;2023-05-19T11:23:36;2.22;;;1.00;;
71821;SDS011;64096;52.548;13.406;2023-05-19T11:26:04;2.88;;;1.08;;
71821;SDS011;64096;52.548;13.406;2023-05-19T11:28:33;2.53;;;1.15;;
71821;SDS011;64096;52.548;13.406;2023-05-19T11:30:59;3.55;;;1.10;;
71821;SDS011;64096;52.548;13.406;2023-05-19T11:33:26;2.92;;;1.73;;
71821;SDS011;64096;52.548;13.406;2023-05-19T11:35:53;2.60;;;1.10;;
71821;SDS011;64096;52.548;13.406;2023-05-19T11:38:21;2.83;;;1.13;;
71821;SDS011;64096;52.548;13.406;2023-05-19T11:40:48;4.80;;;1.13;;
71821;SDS011;64096;52.548;13.406;2023-05-19T11:43:17;4.68;;;1.30;;
71821;SDS011;64096;52.548;13.406;2023-05-19T11:45:43;2.05;;;0.98;;
71821;SDS011;64096;52.548;13.406;2023-05-19T11:48:11;2.17;;;1.00;;
71821;SDS011;64096;52.548;13.406;2023-05-19T11:50:39;1.85;;;1.05;;
71821;SDS011;64096;52.548;13.406;2023-05-19T11:53:05;2.25;;;1.00;;
71821;SDS011;64096;52.548;13.406;2023-05-19T11:55:31;2.60;;;1.15;;
71821;SDS011;64096;52.548;13.406;2023-05-19T11:57:57;1.85;;;1.08;;
71821;SDS011;64096;52.548;13.406;2023-05-19T12:00:27;3.00;;;1.20;;
71821;SDS011;64096;52.548;13.406;2023-05-19T12:02:53;2.20;;;1.00;;
71821;SDS011;64096;52.548;13.406;2023-05-19T12:05:23;2.40;;;1.10;;
71821;SDS011;64096;52.548;13.406;2023-05-19T12:07:49;1.98;;;1.10;;
71821;SDS011;64096;52.548;13.406;2023-05-19T12:10:22;3.03;;;1.10;;
71821;SDS011;64096;52.548;13.406;2023-05-19T12:12:52;2.23;;;1.13;;
71821;SDS011;64096;52.548;13.406;2023-05-19T12:15:21;3.08;;;1.30;;
71821;SDS011;64096;52.548;13.406;2023-05-19T12:17:48;3.25;;;1.10;;
71821;SDS011;64096;52.548;13.406;2023-05-19T12:20:15;3.22;;;1.30;;
71821;SDS011;64096;52.548;13.406;2023-05-19T12:22:42;1.55;;;0.88;;
71821;SDS011;64096;52.548;13.406;2023-05-19T12:25:08;1.90;;;0.90;;
71821;SDS011;64096;52.548;13.406;2023-05-19T12:27:34;3.28;;;1.35;;
71821;SDS011;64096;52.548;13.406;2023-05-19T12:30:02;2.08;;;1.20;;
71821;SDS011;64096;52.548;13.406;2023-05-19T12:32:28;2.65;;;1.10;;
71821;SDS011;64096;52.548;13.406;2023-05-19T12:34:54;3.35;;;1.30;;
71821;SDS011;64096;52.548;13.406;2023-05-19T12:37:21;3.35;;;1.40;;
71821;SDS011;64096;52.548;13.406;2023-05-19T12:39:49;3.70;;;1.33;;
71821;SDS011;64096;52.548;13.406;2023-05-19T12:42:15;4.03;;;1.25;;
71821;SDS011;64096;52.548;13.406;2023-05-19T12:44:43;3.83;;;1.20;;
71821;SDS011;64096;52.548;13.406;2023-05-19T12:47:17;1.70;;;0.90;;
71821;SDS011;64096;52.548;13.406;2023-05-19T12:52:25;2.28;;;1.20;;
71821;SDS011;64096;52.548;13.406;2023-05-19T12:54:59;2.80;;;0.95;;
71821;SDS011;64096;52.548;13.406;2023-05-19T12:57:26;2.58;;;1.45;;
71821;SDS011;64096;52.548;13.406;2023-05-19T13:00:02;2.53;;;1.30;;
71821;SDS011;64096;52.548;13.406;2023-05-19T13:02:33;1.85;;;1.10;;
71821;SDS011;64096;52.548;13.406;2023-05-19T13:05:00;2.38;;;1.00;;
71821;SDS011;64096;52.548;13.406;2023-05-19T13:07:26;2.00;;;1.00;;
71821;SDS011;64096;52.548;13.406;2023-05-19T13:09:52;2.25;;;1.23;;
71821;SDS011;64096;52.548;13.406;2023-05-19T13:12:18;2.78;;;1.50;;
71821;SDS011;64096;52.548;13.406;2023-05-19T13:14:44;3.53;;;1.50;;
71821;SDS011;64096;52.548;13.406;2023-05-19T13:17:10;2.40;;;1.20;;
71821;SDS011;64096;52.548;13.406;2023-05-19T13:19:36;3.17;;;1.52;;
71821;SDS011;64096;52.548;13.406;2023-05-19T13:22:02;2.67;;;1.25;;
71821;SDS011;64096;52.548;13.406;2023-05-19T13:24:28;3.25;;;1.23;;
71821;SDS011;64096;52.548;13.406;2023-05-19T13:26:55;3.10;;;1.40;;
71821;SDS011;64096;52.548;13.406;2023-05-19T13:29:21;3.15;;;1.50;;
71821;SDS011;64096;52.548;13.406;2023-05-19T13:31:49;5.88;;;1.65;;
71821;SDS011;64096;52.548;13.406;2023-05-19T13:34:15;2.65;;;1.42;;
71821;SDS011;64096;52.548;13.406;2023-05-19T13:36:42;3.60;;;1.55;;
71821;SDS011;64096;52.548;13.406;2023-05-19T13:39:11;2.58;;;1.15;;
71821;SDS011;64096;52.548;13.406;2023-05-19T13:41:38;3.78;;;1.23;;
71821;SDS011;64096;52.548;13.406;2023-05-19T13:44:04;4.05;;;1.40;;
71821;SDS011;64096;52.548;13.406;2023-05-19T13:46:30;3.05;;;1.50;;
71821;SDS011;64096;52.548;13.406;2023-05-19T13:48:56;2.72;;;1.38;;
71821;SDS011;64096;52.548;13.406;2023-05-19T13:51:22;3.60;;;1.40;;
71821;SDS011;64096;52.548;13.406;2023-05-19T13:53:48;3.55;;;1.55;;
71821;SDS011;64096;52.548;13.406;2023-05-19T13:56:15;3.58;;;1.40;;
71821;SDS011;64096;52.548;13.406;2023-05-19T13:58:41;3.70;;;1.50;;
